Time;durP1;ratioP1;P1;durP2;ratioP2;P2;SDS_P1;SDS_P2;PMS_P1;PMS_P2;Temp;Humidity;BMP_temperature;BMP_pressure;BME280_temperature;BME280_humidity;BME280_pressure;Samples;Min_cycle;Max_cycle;Signal;HPM_P1;HPM_P2
2021/12/11 00:01:37;;;;;;;15.70;10.02;;;;;;;2.78;68.41;98654.25;5069962;28;20534;-64
2021/12/11 00:04:07;;;;;;;23.35;11.68;;;;;;;2.84;68.09;98663.22;5069406;28;20468;-63
2021/12/11 00:06:40;;;;;;;17.08;10.82;;;;;;;2.91;68.50;98674.66;5051737;28;20047;-65
2021/12/11 00:09:27;;;;;;;19.02;11.50;;;;;;;2.89;68.17;98673.25;5070857;28;20028;-64
2021/12/11 00:12:02;;;;;;;19.52;11.30;;;;;;;2.94;68.87;98680.63;5051257;28;20075;-64
2021/12/11 00:14:29;;;;;;;18.45;11.68;;;;;;;2.93;68.18;98685.19;5073267;28;20032;-64
2021/12/11 00:16:56;;;;;;;23.77;13.07;;;;;;;2.92;68.38;98686.25;5071484;28;20063;-63
2021/12/11 00:19:29;;;;;;;19.77;11.80;;;;;;;2.82;68.50;98684.19;5071297;28;20047;-64
2021/12/11 00:22:04;;;;;;;19.10;11.90;;;;;;;2.92;68.71;98697.03;5071233;28;20119;-63
2021/12/11 00:24:33;;;;;;;18.52;10.40;;;;;;;2.52;69.87;98709.44;5071403;28;20035;-64
2021/12/11 00:27:03;;;;;;;19.50;11.60;;;;;;;2.92;68.66;98708.63;5071803;28;20048;-64
2021/12/11 00:29:29;;;;;;;18.30;10.02;;;;;;;2.87;69.52;98713.06;5052692;28;20123;-65
2021/12/11 00:32:06;;;;;;;19.42;10.00;;;;;;;3.01;69.45;98725.19;5071650;28;20057;-64
2021/12/11 00:34:33;;;;;;;22.83;12.32;;;;;;;3.03;68.82;98719.59;5068668;28;20470;-64
2021/12/11 00:37:02;;;;;;;23.60;12.68;;;;;;;2.96;69.01;98718.91;5071704;28;20044;-65
2021/12/11 00:42:34;;;;;;;23.98;12.80;;;;;;;3.08;69.11;98727.75;5061580;28;20070;-64
2021/12/11 00:45:11;;;;;;;19.77;10.90;;;;;;;2.99;68.67;98734.59;5054059;28;20106;-64
2021/12/11 00:47:44;;;;;;;22.15;12.75;;;;;;;2.70;70.63;98738.06;5073740;28;20123;-64
2021/12/11 00:50:12;;;;;;;24.40;11.95;;;;;;;2.90;69.35;98751.13;5072640;28;20023;-64
2021/12/11 00:52:54;;;;;;;23.88;13.07;;;;;;;3.04;68.99;98750.84;5073501;28;20333;-63
2021/12/11 00:55:32;;;;;;;19.55;11.32;;;;;;;3.12;68.61;98760.41;5072215;28;20028;-64
2021/12/11 00:58:08;;;;;;;20.83;12.45;;;;;;;2.54;70.78;98761.16;5072996;28;20121;-64
2021/12/11 01:00:39;;;;;;;27.45;12.55;;;;;;;2.82;70.47;98764.97;5073178;28;20028;-63
2021/12/11 01:03:05;;;;;;;20.73;11.68;;;;;;;2.62;70.93;98771.56;5072336;28;20398;-63
2021/12/11 01:05:38;;;;;;;24.13;10.85;;;;;;;2.95;70.14;98779.22;5072525;28;20048;-64
2021/12/11 01:08:36;;;;;;;21.17;11.87;;;;;;;3.17;68.64;98795.53;5072733;28;20601;-63
2021/12/11 01:11:09;;;;;;;22.23;11.93;;;;;;;3.05;69.08;98795.59;5073591;28;20553;-63
2021/12/11 01:13:43;;;;;;;19.67;11.13;;;;;;;3.07;68.51;98798.03;5072531;28;20043;-64
2021/12/11 01:16:11;;;;;;;23.70;13.32;;;;;;;2.95;68.62;98798.06;5072475;28;20648;-64
2021/12/11 01:18:41;;;;;;;26.70;13.77;;;;;;;3.00;68.43;98806.22;5073341;28;20080;-64
2021/12/11 01:24:29;;;;;;;19.23;11.98;;;;;;;2.98;68.93;98819.13;5074554;28;20036;-64
2021/12/11 01:26:50;;;;;;;23.52;13.75;;;;;;;3.00;68.82;98833.16;5069491;28;20093;-64
2021/12/11 01:29:18;;;;;;;22.83;14.37;;;;;;;2.81;69.31;98838.69;5071141;28;20060;-64
2021/12/11 01:31:45;;;;;;;20.48;12.02;;;;;;;2.89;69.18;98849.09;5071973;28;20055;-63
2021/12/11 01:34:11;;;;;;;34.88;12.55;;;;;;;2.82;68.78;98852.97;5072480;28;20028;-64
2021/12/11 01:36:37;;;;;;;25.70;13.98;;;;;;;2.80;69.91;98855.91;5073299;28;20032;-63
2021/12/11 01:39:08;;;;;;;25.02;13.85;;;;;;;2.98;68.80;98867.59;5072213;28;20060;-64
2021/12/11 01:41:34;;;;;;;21.63;12.57;;;;;;;2.95;69.22;98879.66;5072212;28;20032;-64
2021/12/11 01:44:06;;;;;;;24.50;12.93;;;;;;;2.88;68.66;98882.50;5072130;28;20066;-63
2021/12/11 01:46:31;;;;;;;22.35;11.40;;;;;;;2.79;69.03;98883.88;5068809;28;20036;-63
2021/12/11 01:49:03;;;;;;;25.23;11.95;;;;;;;2.92;68.45;98882.81;5074187;28;20471;-64
2021/12/11 01:51:35;;;;;;;19.85;11.65;;;;;;;2.91;68.07;98890.06;5071613;28;20039;-63
2021/12/11 01:54:05;;;;;;;22.05;12.77;;;;;;;2.72;68.21;98897.47;5072616;28;20338;-64
2021/12/11 01:56:32;;;;;;;46.47;13.45;;;;;;;2.60;68.89;98902.84;5072709;28;20020;-64
2021/12/11 01:59:05;;;;;;;23.33;12.57;;;;;;;2.78;68.84;98911.88;5071873;28;20032;-63
2021/12/11 02:02:03;;;;;;;30.33;14.88;;;;;;;2.74;68.67;98919.59;5076042;28;20061;-64
2021/12/11 02:04:31;;;;;;;18.80;12.05;;;;;;;2.88;68.28;98933.66;5062438;28;20186;-63
2021/12/11 02:07:01;;;;;;;16.33;10.65;;;;;;;2.83;68.25;98941.59;5076092;28;20070;-63
2021/12/11 02:09:31;;;;;;;21.05;12.88;;;;;;;2.56;70.01;98940.16;5076946;28;20376;-64
2021/12/11 02:12:14;;;;;;;22.00;13.20;;;;;;;2.82;69.34;98948.03;5074977;28;20247;-63
2021/12/11 02:14:45;;;;;;;24.48;11.73;;;;;;;2.84;69.80;98947.81;5075733;28;20043;-64
2021/12/11 02:17:22;;;;;;;19.58;11.82;;;;;;;2.86;69.16;98951.09;5073737;28;20376;-64
2021/12/11 02:19:49;;;;;;;24.38;13.43;;;;;;;2.89;69.28;98961.38;5074982;28;20117;-63
2021/12/11 02:22:21;;;;;;;23.13;11.95;;;;;;;2.71;70.11;98965.00;5076194;28;20036;-63
2021/12/11 02:24:52;;;;;;;25.70;12.82;;;;;;;2.91;69.09;98965.47;5075633;28;20037;-64
2021/12/11 02:27:24;;;;;;;25.70;14.15;;;;;;;2.85;68.93;98971.78;5075363;28;20116;-64
2021/12/11 02:29:55;;;;;;;20.65;12.25;;;;;;;2.81;68.90;98976.00;5074575;28;20023;-64
2021/12/11 02:32:32;;;;;;;27.13;14.02;;;;;;;2.78;69.18;98985.38;5074762;28;20049;-64
2021/12/11 02:35:17;;;;;;;21.02;12.35;;;;;;;2.71;69.10;98986.53;5074546;28;20031;-64
2021/12/11 02:37:49;;;;;;;22.17;13.95;;;;;;;2.27;71.81;98988.44;5075404;28;20234;-63
2021/12/11 02:40:20;;;;;;;28.23;13.52;;;;;;;2.67;70.01;98992.38;5076029;28;20107;-64
2021/12/11 02:42:52;;;;;;;20.45;12.27;;;;;;;2.72;69.93;98991.69;5073671;28;20040;-64
2021/12/11 02:45:45;;;;;;;26.85;12.02;;;;;;;2.23;71.14;98987.25;5075029;28;20476;-64
2021/12/11 02:48:11;;;;;;;24.98;14.32;;;;;;;2.40;70.88;98987.41;5071819;28;20094;-63
2021/12/11 02:50:39;;;;;;;24.70;13.93;;;;;;;2.68;69.81;98993.22;5075617;28;20392;-64
2021/12/11 02:53:15;;;;;;;21.42;11.88;;;;;;;2.74;68.69;99003.06;5075603;28;20041;-63
2021/12/11 02:56:02;;;;;;;26.10;12.85;;;;;;;2.70;69.41;99012.66;5074875;28;20023;-64
2021/12/11 02:58:32;;;;;;;25.10;14.75;;;;;;;2.82;69.26;99017.22;5074560;28;20079;-62
2021/12/11 03:01:19;;;;;;;24.67;14.75;;;;;;;2.55;69.98;99021.13;5074989;28;20495;-64
2021/12/11 03:03:46;;;;;;;27.10;15.63;;;;;;;2.38;70.32;99021.78;5074962;28;20029;-64
2021/12/11 03:06:22;;;;;;;23.92;13.68;;;;;;;2.39;71.65;99028.81;5075853;28;20090;-63
2021/12/11 03:08:50;;;;;;;27.98;12.07;;;;;;;2.55;71.29;99026.53;5074234;28;20020;-62
2021/12/11 03:11:20;;;;;;;28.73;15.90;;;;;;;2.12;71.65;99034.56;5074895;28;20588;-64
2021/12/11 03:13:51;;;;;;;30.92;16.02;;;;;;;1.71;72.20;99029.66;5074446;28;20028;-65
2021/12/11 03:16:22;;;;;;;33.10;17.20;;;;;;;1.76;71.94;99037.06;5075215;28;20563;-65
2021/12/11 03:18:48;;;;;;;31.02;15.38;;;;;;;1.82;73.25;99029.94;5075280;28;20035;-64
2021/12/11 03:21:14;;;;;;;26.58;14.30;;;;;;;1.97;72.59;99043.81;5075386;28;20421;-64
2021/12/11 03:23:40;;;;;;;26.08;16.17;;;;;;;2.33;71.81;99049.41;5075769;28;20093;-64
2021/12/11 03:26:05;;;;;;;25.25;14.52;;;;;;;1.96;72.40;99052.94;5074872;28;20028;-64
2021/12/11 03:28:30;;;;;;;31.80;14.93;;;;;;;1.96;71.84;99061.03;5074140;28;20241;-64
2021/12/11 03:30:59;;;;;;;25.52;15.10;;;;;;;1.55;73.48;99065.16;5075034;28;20037;-64
2021/12/11 03:33:33;;;;;;;24.88;14.77;;;;;;;1.84;72.40;99070.88;5075687;28;20054;-64
2021/12/11 03:35:59;;;;;;;27.50;15.13;;;;;;;1.90;72.38;99072.66;5075857;28;20395;-63
2021/12/11 03:38:25;;;;;;;25.90;15.27;;;;;;;2.21;71.16;99087.00;5074919;28;20040;-63
2021/12/11 03:40:52;;;;;;;35.28;17.20;;;;;;;2.32;70.88;99087.25;5075483;28;20036;-63
2021/12/11 03:43:20;;;;;;;39.17;18.33;;;;;;;1.24;73.01;99090.03;5073222;28;20036;-64
2021/12/11 03:45:52;;;;;;;34.33;18.83;;;;;;;2.00;71.39;99090.13;5075076;28;20495;-63
2021/12/11 03:48:23;;;;;;;29.52;16.95;;;;;;;2.01;71.49;99091.78;5072018;28;20039;-63
2021/12/11 03:50:50;;;;;;;30.80;17.65;;;;;;;1.91;71.23;99097.69;5074172;28;20028;-63
2021/12/11 03:53:18;;;;;;;29.88;15.32;;;;;;;2.15;70.62;99103.22;5075163;28;20101;-64
2021/12/11 03:55:49;;;;;;;30.63;15.20;;;;;;;1.85;72.52;99110.97;5073809;28;20035;-63
2021/12/11 03:58:15;;;;;;;30.00;16.17;;;;;;;1.67;72.28;99114.47;5074362;28;20423;-63
2021/12/11 04:00:58;;;;;;;30.45;17.15;;;;;;;0.85;74.30;99130.41;5074030;28;20020;-63
2021/12/11 04:03:26;;;;;;;26.45;13.85;;;;;;;1.09;75.06;99124.47;5073397;28;20040;-63
2021/12/11 04:05:53;;;;;;;40.65;18.10;;;;;;;0.74;75.24;99134.59;5075466;28;20029;-63
2021/12/11 04:08:22;;;;;;;34.63;17.98;;;;;;;0.71;74.83;99132.34;5073952;28;20049;-63
2021/12/11 04:10:48;;;;;;;28.48;17.20;;;;;;;0.57;75.50;99140.44;5074359;28;20051;-64
2021/12/11 04:13:14;;;;;;;37.45;19.50;;;;;;;0.28;77.07;99142.66;5071755;28;20036;-63
2021/12/11 04:15:44;;;;;;;29.73;17.23;;;;;;;0.17;78.07;99140.63;5075999;28;20072;-64
2021/12/11 04:18:10;;;;;;;38.42;18.02;;;;;;;0.27;77.20;99146.34;5072771;28;20117;-64
2021/12/11 04:20:39;;;;;;;33.33;20.42;;;;;;;0.18;77.09;99142.28;5074745;28;20024;-62
2021/12/11 04:23:07;;;;;;;33.85;19.15;;;;;;;0.34;77.11;99157.91;5073532;28;20090;-63
2021/12/11 04:25:34;;;;;;;31.48;16.35;;;;;;;0.38;77.70;99160.97;5074480;28;20078;-65
2021/12/11 04:28:00;;;;;;;32.25;17.98;;;;;;;0.47;76.37;99150.81;5075102;28;20036;-63
2021/12/11 04:30:27;;;;;;;40.50;21.52;;;;;;;0.14;77.47;99157.13;5073332;28;20043;-64
2021/12/11 04:32:59;;;;;;;43.03;20.30;;;;;;;0.23;77.07;99166.59;5075306;28;20046;-64
2021/12/11 04:35:28;;;;;;;47.60;19.55;;;;;;;0.05;78.11;99168.09;5074299;28;20037;-63
2021/12/11 04:37:54;;;;;;;42.35;21.30;;;;;;;0.10;78.00;99170.94;5075422;28;20459;-64
2021/12/11 04:40:23;;;;;;;45.88;20.80;;;;;;;0.15;78.05;99177.53;5074875;28;20111;-64
2021/12/11 04:43:03;;;;;;;36.30;20.55;;;;;;;0.27;77.68;99175.84;5073663;28;20128;-64
2021/12/11 04:45:33;;;;;;;39.10;23.77;;;;;;;0.04;78.12;99179.81;5074491;28;20032;-63
2021/12/11 04:48:29;;;;;;;41.15;22.92;;;;;;;0.19;77.92;99189.50;5073762;28;20025;-63
2021/12/11 04:53:33;;;;;;;34.80;22.27;;;;;;;0.30;77.65;99201.44;5073385;28;20732;-64
2021/12/11 05:01:58;;;;;;;42.17;22.00;;;;;;;-0.04;78.09;99209.56;5073730;28;20034;-63
2021/12/11 05:04:53;;;;;;;44.13;22.27;;;;;;;-0.13;77.57;99209.78;5074210;28;20032;-64
2021/12/11 05:07:45;;;;;;;42.40;22.83;;;;;;;-0.07;78.16;99209.97;5074290;28;20463;-64
2021/12/11 05:10:24;;;;;;;39.38;22.08;;;;;;;-0.24;78.71;99221.94;5073995;28;20119;-63
2021/12/11 05:12:54;;;;;;;41.72;23.58;;;;;;;-0.22;79.14;99229.75;5073542;28;20468;-64
2021/12/11 05:15:25;;;;;;;41.33;23.98;;;;;;;-0.64;80.76;99236.13;5074875;28;20036;-64
2021/12/11 05:17:51;;;;;;;51.15;26.35;;;;;;;-0.53;80.42;99234.69;5067416;28;20036;-63
2021/12/11 05:20:19;;;;;;;47.00;27.10;;;;;;;-0.29;80.43;99237.81;5072809;28;20032;-65
2021/12/11 05:22:45;;;;;;;52.22;25.83;;;;;;;-0.37;79.50;99238.00;5071702;28;20032;-64
2021/12/11 05:25:11;;;;;;;59.05;25.92;;;;;;;0.20;78.11;99250.16;5074685;28;20024;-64
2021/12/11 05:27:38;;;;;;;42.28;23.23;;;;;;;-0.09;78.89;99253.06;5074568;28;20121;-64
2021/12/11 05:30:09;;;;;;;40.63;23.23;;;;;;;-0.44;80.11;99253.25;5073294;28;20040;-64
2021/12/11 05:32:35;;;;;;;48.10;24.25;;;;;;;-0.25;79.80;99257.81;5074486;28;20117;-63
2021/12/11 05:35:01;;;;;;;48.35;24.83;;;;;;;-0.17;78.88;99264.81;5075738;28;20024;-63
2021/12/11 05:37:27;;;;;;;52.30;21.83;;;;;;;-0.27;79.27;99275.13;5078413;28;20505;-63
2021/12/11 05:39:53;;;;;;;51.25;26.90;;;;;;;-0.18;78.92;99281.91;5077481;28;20021;-63
2021/12/11 05:42:19;;;;;;;42.03;23.35;;;;;;;-0.14;79.28;99285.84;5077244;28;20230;-63
2021/12/11 05:44:44;;;;;;;51.28;24.55;;;;;;;-0.07;78.51;99279.66;5077685;28;20128;-63
2021/12/11 05:47:10;;;;;;;45.67;23.52;;;;;;;0.11;78.33;99287.91;5078468;28;20033;-63
2021/12/11 05:49:36;;;;;;;50.30;27.13;;;;;;;-0.12;78.71;99289.13;5077252;28;20097;-63
2021/12/11 05:52:08;;;;;;;50.45;25.98;;;;;;;0.22;78.06;99299.84;5075400;28;20467;-63
2021/12/11 05:54:35;;;;;;;44.67;24.88;;;;;;;0.10;77.92;99306.88;5078800;28;20029;-64
2021/12/11 05:57:06;;;;;;;39.83;24.27;;;;;;;0.25;77.05;99309.34;5075856;28;20559;-63
2021/12/11 05:59:31;;;;;;;50.05;26.80;;;;;;;0.18;77.45;99314.72;5077444;28;20628;-62
2021/12/11 06:02:04;;;;;;;45.20;24.85;;;;;;;0.09;78.31;99315.94;5077750;28;20028;-64
2021/12/11 06:04:34;;;;;;;49.45;26.75;;;;;;;-0.06;77.50;99333.03;5077141;28;20502;-64
2021/12/11 06:07:03;;;;;;;59.88;29.77;;;;;;;-0.13;78.45;99341.09;5077570;28;20115;-63
2021/12/11 06:09:29;;;;;;;54.05;27.55;;;;;;;-0.21;79.11;99338.63;5076949;28;20067;-63
2021/12/11 06:12:01;;;;;;;54.63;26.90;;;;;;;-0.08;79.08;99343.16;5078077;28;20116;-64
2021/12/11 06:14:27;;;;;;;53.58;27.20;;;;;;;0.25;78.27;99341.50;5076616;28;20378;-62
2021/12/11 06:16:56;;;;;;;59.35;29.10;;;;;;;0.68;77.98;99347.44;5077732;28;20028;-64
2021/12/11 06:19:22;;;;;;;59.10;29.05;;;;;;;0.13;78.91;99354.72;5076692;28;20038;-64
2021/12/11 06:21:50;;;;;;;55.45;29.05;;;;;;;0.25;79.48;99357.59;5074000;28;20029;-64
2021/12/11 06:24:16;;;;;;;66.25;30.73;;;;;;;-0.07;80.48;99365.41;5077910;28;20039;-63
2021/12/11 06:26:42;;;;;;;73.93;35.00;;;;;;;-0.27;82.16;99368.91;5076633;28;20055;-64
2021/12/11 06:29:07;;;;;;;82.50;34.92;;;;;;;0.22;80.78;99366.06;5077429;28;20024;-64
2021/12/11 06:31:33;;;;;;;70.82;34.05;;;;;;;-0.03;81.95;99378.22;5074198;28;20376;-64
2021/12/11 06:33:58;;;;;;;79.07;33.50;;;;;;;-0.01;82.82;99375.34;5071188;28;20068;-64
2021/12/11 06:36:24;;;;;;;86.82;42.83;;;;;;;-0.19;83.35;99386.63;5076457;28;20362;-64
2021/12/11 06:39:00;;;;;;;88.35;38.08;;;;;;;0.00;82.85;99395.75;5077351;28;20817;-62
2021/12/11 06:41:30;;;;;;;88.53;40.72;;;;;;;-0.15;83.53;99391.41;5077085;28;20024;-64
2021/12/11 06:43:56;;;;;;;90.00;38.65;;;;;;;0.16;83.00;99391.88;5075998;28;20039;-64
2021/12/11 06:46:21;;;;;;;84.55;38.33;;;;;;;-0.01;83.39;99394.94;5077518;28;20024;-64
2021/12/11 06:48:47;;;;;;;83.47;40.20;;;;;;;0.32;82.55;99406.72;5076714;28;20180;-63
2021/12/11 06:51:13;;;;;;;87.78;43.05;;;;;;;0.23;82.26;99414.13;5076595;28;20476;-63
2021/12/11 06:53:52;;;;;;;88.65;41.42;;;;;;;0.31;83.35;99412.28;5076189;28;20047;-63
2021/12/11 06:56:19;;;;;;;87.13;39.30;;;;;;;0.54;81.89;99417.25;5075948;28;20055;-64
2021/12/11 06:58:46;;;;;;;93.85;40.88;;;;;;;0.26;82.88;99417.44;5075335;28;20032;-63
2021/12/11 07:01:12;;;;;;;110.15;45.75;;;;;;;0.19;83.65;99422.78;5075705;28;20460;-63
2021/12/11 07:03:39;;;;;;;87.95;44.40;;;;;;;0.31;83.41;99429.19;5076910;28;20468;-62
2021/12/11 07:06:06;;;;;;;87.03;39.85;;;;;;;0.52;82.99;99443.44;5074922;28;20021;-63
2021/12/11 07:08:36;;;;;;;88.07;42.28;;;;;;;0.48;82.74;99450.25;5076683;28;20024;-63
2021/12/11 07:11:10;;;;;;;91.00;44.30;;;;;;;0.73;81.50;99448.81;5074790;28;20072;-64
2021/12/11 07:13:35;;;;;;;82.15;40.08;;;;;;;0.85;81.77;99454.38;5075032;28;20111;-62
2021/12/11 07:16:01;;;;;;;94.38;44.10;;;;;;;0.79;81.73;99456.84;5076457;28;20034;-63
2021/12/11 07:18:27;;;;;;;96.07;41.70;;;;;;;1.02;81.40;99457.44;5075960;28;20032;-64
2021/12/11 07:20:54;;;;;;;92.05;40.10;;;;;;;1.16;80.39;99469.81;5076074;28;20452;-63
2021/12/11 07:23:20;;;;;;;83.10;39.20;;;;;;;1.16;80.06;99472.50;5075832;28;20868;-64
2021/12/11 07:25:56;;;;;;;76.10;39.03;;;;;;;1.04;81.65;99474.16;5074898;28;20025;-63
2021/12/11 07:28:23;;;;;;;68.35;36.00;;;;;;;0.87;80.78;99476.47;5075527;28;20039;-65
2021/12/11 07:30:50;;;;;;;80.60;37.60;;;;;;;1.24;80.10;99476.81;5076135;28;20068;-66
2021/12/11 07:33:16;;;;;;;74.20;37.42;;;;;;;1.30;81.12;99487.78;5074798;28;20021;-65
2021/12/11 07:35:44;;;;;;;91.07;42.72;;;;;;;0.89;80.86;99490.50;5075058;28;20024;-65
2021/12/11 07:38:10;;;;;;;83.57;36.75;;;;;;;1.06;81.19;99506.22;5075384;28;20242;-65
2021/12/11 07:40:41;;;;;;;73.43;36.30;;;;;;;1.37;80.53;99507.38;5074833;28;20071;-65
2021/12/11 07:43:08;;;;;;;89.43;36.90;;;;;;;1.47;79.40;99517.69;5070644;28;20024;-66
2021/12/11 07:45:34;;;;;;;81.13;33.80;;;;;;;1.92;78.79;99522.31;5071420;28;20069;-64
2021/12/11 07:48:00;;;;;;;89.00;38.78;;;;;;;1.29;80.04;99521.88;5073404;28;20480;-64
2021/12/11 07:50:28;;;;;;;85.47;38.97;;;;;;;1.10;79.82;99519.00;5075725;28;20028;-63
2021/12/11 07:52:54;;;;;;;86.78;38.88;;;;;;;0.70;82.17;99535.94;5054340;28;20094;-62
2021/12/11 07:55:20;;;;;;;77.38;35.30;;;;;;;0.96;81.34;99534.28;5072988;28;20027;-63
2021/12/11 07:57:45;;;;;;;89.18;39.30;;;;;;;1.21;79.80;99541.72;5071641;28;20024;-64
2021/12/11 08:00:15;;;;;;;85.00;40.42;;;;;;;0.81;82.30;99546.03;5073517;28;20024;-64
2021/12/11 08:02:41;;;;;;;80.30;35.70;;;;;;;0.90;82.35;99551.22;5071355;28;20032;-63
2021/12/11 08:05:07;;;;;;;75.32;37.75;;;;;;;0.99;82.35;99555.38;5074000;28;20390;-64
2021/12/11 08:07:33;;;;;;;80.93;35.47;;;;;;;1.56;79.92;99553.22;5074357;28;20121;-64
2021/12/11 08:09:59;;;;;;;90.53;40.90;;;;;;;0.86;82.04;99568.75;5071543;28;20066;-64
2021/12/11 08:12:24;;;;;;;85.43;39.75;;;;;;;1.14;81.43;99557.81;5071917;28;20121;-63
2021/12/11 08:14:50;;;;;;;71.90;34.90;;;;;;;1.59;80.69;99568.94;5072364;28;20428;-63
2021/12/11 08:17:17;;;;;;;79.68;41.03;;;;;;;1.24;80.96;99573.53;5074894;28;20028;-62
2021/12/11 08:19:50;;;;;;;88.78;39.72;;;;;;;1.46;81.18;99575.16;5067701;28;20055;-63
2021/12/11 08:22:15;;;;;;;81.65;39.40;;;;;;;1.38;81.56;99578.91;5074502;28;20027;-63
2021/12/11 08:24:41;;;;;;;87.28;40.60;;;;;;;1.04;82.31;99582.41;5074573;28;20433;-67
2021/12/11 08:27:15;;;;;;;82.10;40.25;;;;;;;1.28;82.93;99590.88;5074122;28;20229;-65
2021/12/11 08:29:43;;;;;;;92.60;41.55;;;;;;;1.11;82.53;99595.84;5073615;28;20322;-64
2021/12/11 08:32:10;;;;;;;87.90;42.95;;;;;;;1.20;82.18;99598.34;5074167;28;20056;-65
2021/12/11 08:34:36;;;;;;;76.15;39.60;;;;;;;1.32;82.00;99599.38;5073586;28;20039;-64
2021/12/11 08:37:06;;;;;;;87.88;40.42;;;;;;;1.43;81.38;99610.50;5074596;28;20052;-64
2021/12/11 08:39:31;;;;;;;86.63;37.83;;;;;;;1.36;82.01;99610.53;5074329;28;20021;-64
2021/12/11 08:41:58;;;;;;;81.55;39.22;;;;;;;1.55;80.85;99610.69;5074337;28;20039;-65
2021/12/11 08:44:24;;;;;;;85.38;37.63;;;;;;;1.43;81.59;99616.72;5073845;28;20082;-65
2021/12/11 08:46:57;;;;;;;85.00;42.33;;;;;;;1.60;80.84;99614.44;5074356;28;20072;-65
2021/12/11 08:49:26;;;;;;;75.05;38.30;;;;;;;1.37;82.19;99620.22;5072410;28;20474;-65
2021/12/11 08:51:59;;;;;;;81.03;39.63;;;;;;;1.55;81.13;99621.44;5074070;28;20028;-65
2021/12/11 08:54:27;;;;;;;82.13;40.78;;;;;;;1.15;82.75;99633.88;5073850;28;20060;-65
2021/12/11 08:56:54;;;;;;;78.65;40.28;;;;;;;1.26;82.66;99621.69;5073406;28;20028;-64
2021/12/11 08:59:25;;;;;;;78.75;37.75;;;;;;;1.35;82.08;99639.25;5073145;28;20467;-65
2021/12/11 09:02:12;;;;;;;78.68;43.42;;;;;;;1.80;80.53;99639.63;5069097;28;20375;-65
2021/12/11 09:04:47;;;;;;;84.88;41.80;;;;;;;1.85;80.97;99643.31;5074533;28;20298;-65
2021/12/11 09:07:18;;;;;;;77.03;37.33;;;;;;;1.93;79.87;99647.66;5073249;28;20063;-62
2021/12/11 09:09:58;;;;;;;78.35;40.63;;;;;;;2.14;78.92;99637.66;5072108;28;20031;-63
2021/12/11 09:12:29;;;;;;;76.30;40.05;;;;;;;2.12;78.49;99653.19;5073463;28;20066;-63
2021/12/11 09:15:05;;;;;;;73.97;38.30;;;;;;;2.13;79.49;99654.84;5072602;28;20416;-64
2021/12/11 09:17:58;;;;;;;67.93;37.15;;;;;;;2.37;77.91;99660.56;5074516;28;20040;-64
2021/12/11 09:20:37;;;;;;;81.15;42.60;;;;;;;2.16;79.14;99670.56;5072389;28;20481;-62
2021/12/11 09:23:06;;;;;;;78.00;42.15;;;;;;;1.91;79.73;99673.91;5072186;28;20023;-64
2021/12/11 09:25:41;;;;;;;77.13;41.20;;;;;;;2.09;80.16;99677.84;5056053;28;20027;-63
2021/12/11 09:28:10;;;;;;;70.43;37.78;;;;;;;1.79;80.66;99670.25;5072548;28;20028;-64
2021/12/11 09:30:35;;;;;;;73.22;38.90;;;;;;;2.14;80.59;99672.63;5072749;28;20045;-63
2021/12/11 09:33:08;;;;;;;68.77;36.17;;;;;;;2.42;79.26;99673.41;5073406;28;20063;-63
2021/12/11 09:35:39;;;;;;;73.07;39.33;;;;;;;2.74;77.93;99683.41;5073759;28;20115;-62
2021/12/11 09:38:13;;;;;;;91.90;39.55;;;;;;;2.58;78.56;99685.56;5073438;28;20032;-64
2021/12/11 09:40:41;;;;;;;85.30;37.42;;;;;;;3.69;75.54;99685.44;5073222;28;20127;-63
2021/12/11 09:43:06;;;;;;;81.72;37.38;;;;;;;2.80;77.78;99694.16;5066128;28;20052;-62
2021/12/11 09:45:42;;;;;;;60.63;33.15;;;;;;;3.45;75.57;99682.53;5058604;28;20033;-63
2021/12/11 09:48:15;;;;;;;68.40;36.35;;;;;;;3.08;76.47;99697.50;5059771;28;20614;-62
2021/12/11 09:50:53;;;;;;;56.80;33.00;;;;;;;3.78;75.66;99691.41;5059966;28;20032;-65
2021/12/11 09:53:22;;;;;;;62.10;34.42;;;;;;;3.50;75.38;99694.31;5059074;28;20514;-62
2021/12/11 09:55:48;;;;;;;66.32;31.55;;;;;;;3.95;74.83;99703.28;5060276;28;20067;-63
2021/12/11 09:58:18;;;;;;;79.15;35.03;;;;;;;4.39;72.80;99710.53;5058419;28;20028;-62
2021/12/11 10:00:49;;;;;;;54.28;29.13;;;;;;;4.14;73.66;99708.69;5060245;28;20050;-64
2021/12/11 10:03:18;;;;;;;66.03;30.45;;;;;;;3.81;74.98;99716.06;5058749;28;20071;-63
2021/12/11 10:05:55;;;;;;;56.30;28.70;;;;;;;4.28;73.49;99717.47;5059140;28;20362;-63
2021/12/11 10:11:18;;;;;;;68.68;33.13;;;;;;;4.98;70.62;99716.47;5057587;28;20136;-65
2021/12/11 10:16:51;;;;;;;63.47;29.38;;;;;;;4.71;72.80;99722.19;5056851;28;20689;-63
2021/12/11 10:19:19;;;;;;;55.22;29.60;;;;;;;4.41;73.62;99721.09;5058441;28;20028;-61
2021/12/11 10:21:51;;;;;;;48.42;27.73;;;;;;;4.86;71.53;99724.50;5063235;28;20696;-62
2021/12/11 10:24:23;;;;;;;62.55;30.40;;;;;;;4.42;72.80;99736.22;5062635;28;20056;-63
2021/12/11 10:26:51;;;;;;;63.95;30.58;;;;;;;4.55;73.39;99732.56;5067859;28;20025;-62
2021/12/11 10:29:19;;;;;;;66.53;32.03;;;;;;;4.12;75.09;99736.94;5068669;28;20040;-62
2021/12/11 10:31:57;;;;;;;54.78;31.00;;;;;;;4.27;74.10;99734.72;5067422;28;20114;-62
2021/12/11 10:34:26;;;;;;;70.55;30.63;;;;;;;4.07;75.83;99735.75;5069383;28;20036;-62
2021/12/11 10:37:04;;;;;;;83.55;31.95;;;;;;;3.94;76.28;99735.88;5067459;28;20468;-65
2021/12/11 10:39:30;;;;;;;70.88;34.08;;;;;;;4.47;74.46;99733.69;5064592;28;20024;-64
2021/12/11 10:41:58;;;;;;;90.13;35.28;;;;;;;3.94;75.57;99727.78;5062657;28;20074;-65
2021/12/11 10:44:30;;;;;;;69.13;35.47;;;;;;;3.46;77.21;99730.00;5062881;28;20073;-65
2021/12/11 10:47:06;;;;;;;70.28;32.72;;;;;;;3.94;77.76;99735.88;5064410;28;20025;-62
2021/12/11 10:49:33;;;;;;;64.88;32.08;;;;;;;3.78;77.09;99734.56;5064401;28;20031;-65
2021/12/11 10:52:08;;;;;;;59.00;29.38;;;;;;;4.07;75.53;99735.75;5064658;28;20500;-63
2021/12/11 10:54:33;;;;;;;62.22;33.83;;;;;;;4.39;75.08;99734.81;5063291;28;20574;-64
2021/12/11 10:56:59;;;;;;;44.67;25.38;;;;;;;4.60;74.59;99737.25;5064786;28;20119;-62
2021/12/11 10:59:32;;;;;;;56.15;26.55;;;;;;;4.92;73.98;99742.50;5063968;28;20029;-64
2021/12/11 11:02:06;;;;;;;51.75;29.05;;;;;;;3.82;76.86;99750.06;5063814;28;20021;-65
2021/12/11 11:04:34;;;;;;;;;;;;;;;3.57;77.00;99742.81;5063694;28;20495;-63
2021/12/11 11:07:01;;;;;;;42.80;24.48;;;;;;;4.51;74.90;99740.28;5061600;28;20032;-62
2021/12/11 11:09:27;;;;;;;52.50;25.92;;;;;;;4.84;72.94;99742.81;5061839;28;20028;-65
2021/12/11 11:11:58;;;;;;;53.17;27.15;;;;;;;4.61;73.58;99747.03;5061514;28;20738;-64
2021/12/11 11:14:25;;;;;;;49.72;23.65;;;;;;;4.43;73.44;99754.09;5062720;28;20036;-65
2021/12/11 11:16:55;;;;;;;49.17;26.65;;;;;;;4.28;74.42;99746.34;5062381;28;20021;-64
2021/12/11 11:19:22;;;;;;;52.58;24.95;;;;;;;4.50;74.88;99748.59;5061724;28;20115;-64
2021/12/11 11:21:56;;;;;;;61.60;22.92;;;;;;;4.71;73.51;99763.53;5062407;28;20456;-65
2021/12/11 11:24:23;;;;;;;45.83;25.80;;;;;;;4.84;73.35;99753.63;5061340;28;20467;-65
2021/12/11 11:26:49;;;;;;;45.03;25.60;;;;;;;4.97;72.78;99758.03;5062920;28;20041;-64
2021/12/11 11:29:19;;;;;;;44.30;26.85;;;;;;;4.12;74.46;99761.22;5061285;28;20097;-64
2021/12/11 11:31:47;;;;;;;47.75;27.48;;;;;;;4.52;73.38;99758.13;5059497;28;20048;-64
2021/12/11 11:34:18;;;;;;;41.90;22.80;;;;;;;4.67;73.32;99759.63;5061004;28;20068;-63
2021/12/11 11:36:46;;;;;;;50.53;29.77;;;;;;;3.77;76.15;99751.78;5060533;28;20032;-63
2021/12/11 11:39:15;;;;;;;43.60;25.60;;;;;;;4.14;75.79;99764.53;5061085;28;20078;-62
2021/12/11 11:41:46;;;;;;;46.15;23.58;;;;;;;4.28;75.43;99766.06;5059346;28;20684;-63
2021/12/11 11:44:12;;;;;;;36.70;20.17;;;;;;;3.81;76.11;99758.38;5060503;28;20487;-63
2021/12/11 11:46:40;;;;;;;44.58;23.55;;;;;;;4.11;75.46;99757.69;5060407;28;20032;-63
2021/12/11 11:49:08;;;;;;;43.60;23.45;;;;;;;4.11;75.32;99760.41;5042978;28;20030;-63
2021/12/11 11:52:05;;;;;;;46.35;27.52;;;;;;;4.29;75.35;99767.69;5059234;28;20025;-62
2021/12/11 11:54:30;;;;;;;56.30;29.77;;;;;;;3.54;77.69;99770.19;5057327;28;20443;-63
2021/12/11 11:57:09;;;;;;;56.13;27.67;;;;;;;3.77;76.84;99776.03;5060909;28;20090;-64
2021/12/11 11:59:36;;;;;;;47.90;24.73;;;;;;;4.15;76.93;99787.78;5060102;28;20042;-62